Monroeville, IN (46773)

10:43 AM EDT on October 30, 2014 (GMT -0400)
Rosene Farms, Hoagland, In | Change Station
CLOSE
Current Station
Personal Weather Station
Location: Monroeville, IN
Elevation: 804 ft
Nearby Weather Stations

Elev 804 ft 40.95 °N, 84.95 °W | Updated 6 minutes ago

Overcast
Overcast
45.5 °F
Feels Like 46 °F
N
0.0
Wind Variable Wind from SSW
Gusts 2.0 mph

Today
High -- | Low -- °F
--% Chance of Precip.
Yesterday
High -- | Low -- °F
Precip. -- in
8:07 AM 6:37 PM
Waxing Crescent, 44% visible
Pressure 30.18 in
Visibility 10.0 miles
Clouds Overcast 3700 ft
Windchill 46 °F
Dew Point 40 °F
Humidity 80%
Rainfall 0.00 in
Snow Depth Not available.
UV 0 out of 12
Pollen .10 out of 12
Air Quality Not available.
Flu Activity Not available.
METAR KFWA 301354Z 22003KT 10SM OVC037 07/03 A3017 RMK AO2 SLP219 T00670033

More Conditions Fewer Conditions

Pressure 30.18 in
Visibility 10.0 miles
Clouds Overcast 3700 ft
Windchill 46 °F
Dew Point 40 °F
Humidity 80%
Rainfall 0.00 in
Snow Depth Not available.
UV 0 out of 12
Pollen .10 out of 12
Air Quality Not available.
Flu Activity Not available.
METAR KFWA 301354Z 22003KT 10SM OVC037 07/03 A3017 RMK AO2 SLP219 T00670033

More Conditions Fewer Conditions

10-Day Weather Forecast

Almanac

Astronomy

Oct. 30, 2014 Rise Set
Actual Time
Civil Twilight
Nautical Twilight
Astronomical Twilight
Moon
Length of Visible Light
Length of Day
Tomorrow will be .
, % of the Moon is Illuminated

Today's Extremes

State Highs State Lows

Community

WunderPhotos

Upload Photos

1,766,379 photos uploaded!

WunderBlogs® & News

Nearby

Air Quality

  Air Quality AQ Index Pollutant
Not available.

Snow Depth

Station Depth Elevation

Earthquake Activity

City Distance Mag. Time & Date
Minimum magnitude displayed is 2.5.

Coastal Water Temperatures

Place Temperature

Nearby Weather Stations